Time,TemperatureF,DewpointF,PressureIn,WindDirection,WindDirectionDegrees,WindSpeedMPH,WindSpeedGustMPH,Humidity,HourlyPrecipIn,Conditions,Clouds,dailyrainin,SoftwareType,DateUTC
2013-04-03 00:03:00,23.4,19.6,30.35,NE,43,2.0,2.0,85,0.00,,,0.00,Wunderground v.1.15,2013-04-03 05:03:00,
2013-04-03 00:08:00,23.5,19.7,30.35,NE,43,0.0,3.0,85,0.00,,,0.00,Wunderground v.1.15,2013-04-03 05:08:00,
2013-04-03 00:14:00,23.1,19.0,30.35,NE,43,0.0,1.0,84,0.00,,,0.00,Wunderground v.1.15,2013-04-03 05:14:00,
2013-04-03 00:19:00,22.7,18.6,30.35,NE,42,0.0,1.0,84,0.00,,,0.00,Wunderground v.1.15,2013-04-03 05:19:00,
2013-04-03 00:24:00,22.2,18.1,30.36,NE,42,0.0,0.0,84,0.00,,,0.00,Wunderground v.1.15,2013-04-03 05:24:00,
2013-04-03 00:31:00,22.0,17.9,30.36,NE,43,0.0,0.0,84,0.00,,,0.00,Wunderground v.1.15,2013-04-03 05:31:00,
2013-04-03 00:37:00,22.0,18.2,30.35,NE,43,0.0,0.0,85,0.00,,,0.00,Wunderground v.1.15,2013-04-03 05:37:00,
2013-04-03 00:42:00,22.0,18.2,30.36,NE,43,0.0,0.0,85,0.00,,,0.00,Wunderground v.1.15,2013-04-03 05:42:00,
2013-04-03 00:47:00,21.7,17.9,30.35,NE,42,0.0,0.0,85,0.00,,,0.00,Wunderground v.1.15,2013-04-03 05:47:00,
2013-04-03 00:52:00,21.5,17.7,30.36,NE,43,0.0,0.0,85,0.00,,,0.00,Wunderground v.1.15,2013-04-03 05:52:00,
2013-04-03 00:58:00,21.1,17.3,30.36,NE,43,0.0,0.0,85,0.00,,,0.00,Wunderground v.1.15,2013-04-03 05:58:00,
2013-04-03 01:03:00,20.9,17.1,30.36,NE,43,0.0,0.0,85,0.00,,,0.00,Wunderground v.1.15,2013-04-03 06:03:00,
2013-04-03 01:09:00,20.7,16.9,30.36,NE,43,0.0,0.0,85,0.00,,,0.00,Wunderground v.1.15,2013-04-03 06:09:00,
2013-04-03 01:16:00,20.8,17.0,30.36,NE,43,0.0,0.0,85,0.00,,,0.00,Wunderground v.1.15,2013-04-03 06:16:00,
2013-04-03 01:21:00,21.2,17.7,30.35,NE,43,0.0,0.0,86,0.00,,,0.00,Wunderground v.1.15,2013-04-03 06:21:00,
2013-04-03 01:27:00,21.6,17.8,30.36,NE,43,0.0,0.0,85,0.00,,,0.00,Wunderground v.1.15,2013-04-03 06:27:00,
2013-04-03 01:33:00,21.1,17.3,30.36,NE,43,0.0,0.0,85,0.00,,,0.00,Wunderground v.1.15,2013-04-03 06:33:00,
2013-04-03 01:39:00,21.3,17.5,30.36,NE,43,0.0,0.0,85,0.00,,,0.00,Wunderground v.1.15,2013-04-03 06:39:00,
2013-04-03 01:46:00,20.7,16.9,30.36,NE,42,0.0,0.0,85,0.00,,,0.00,Wunderground v.1.15,2013-04-03 06:46:00,
2013-04-03 01:52:00,21.0,17.2,30.36,NE,43,0.0,0.0,85,0.00,,,0.00,Wunderground v.1.15,2013-04-03 06:52:00,
2013-04-03 01:58:00,20.7,16.9,30.37,NE,43,0.0,0.0,85,0.00,,,0.00,Wunderground v.1.15,2013-04-03 06:58:00,
2013-04-03 02:03:00,20.6,16.8,30.36,NE,43,0.0,0.0,85,0.00,,,0.00,Wunderground v.1.15,2013-04-03 07:03:00,
2013-04-03 02:08:00,20.8,17.0,30.37,NE,43,0.0,0.0,85,0.00,,,0.00,Wunderground v.1.15,2013-04-03 07:08:00,
2013-04-03 02:13:00,20.7,16.9,30.36,NE,43,0.0,0.0,85,0.00,,,0.00,Wunderground v.1.15,2013-04-03 07:13:00,
2013-04-03 02:18:00,20.9,17.1,30.36,NE,42,0.0,0.0,85,0.00,,,0.00,Wunderground v.1.15,2013-04-03 07:18:00,
2013-04-03 02:23:00,20.9,17.1,30.36,NE,43,0.0,0.0,85,0.00,,,0.00,Wunderground v.1.15,2013-04-03 07:23:00,
2013-04-03 02:28:00,20.7,16.9,30.36,NE,42,0.0,0.0,85,0.00,,,0.00,Wunderground v.1.15,2013-04-03 07:28:00,
2013-04-03 02:33:00,20.5,16.7,30.36,NE,42,0.0,0.0,85,0.00,,,0.00,Wunderground v.1.15,2013-04-03 07:33:00,
2013-04-03 02:38:00,20.3,16.5,30.36,NE,43,0.0,0.0,85,0.00,,,0.00,Wunderground v.1.15,2013-04-03 07:38:00,
2013-04-03 02:43:00,20.1,16.3,30.36,NE,43,0.0,0.0,85,0.00,,,0.00,Wunderground v.1.15,2013-04-03 07:43:00,
2013-04-03 02:48:00,19.7,15.9,30.36,NE,43,0.0,0.0,85,0.00,,,0.00,Wunderground v.1.15,2013-04-03 07:48:00,
2013-04-03 02:53:00,19.5,16.0,30.36,NE,42,0.0,0.0,86,0.00,,,0.00,Wunderground v.1.15,2013-04-03 07:53:00,
2013-04-03 02:58:00,19.7,16.2,30.36,NE,43,0.0,0.0,86,0.00,,,0.00,Wunderground v.1.15,2013-04-03 07:58:00,
2013-04-03 03:03:00,19.7,16.2,30.36,NE,43,0.0,0.0,86,0.00,,,0.00,Wunderground v.1.15,2013-04-03 08:03:00,
2013-04-03 03:08:00,19.8,16.3,30.36,NE,42,0.0,0.0,86,0.00,,,0.00,Wunderground v.1.15,2013-04-03 08:08:00,
2013-04-03 03:13:00,20.0,16.5,30.36,NE,43,0.0,0.0,86,0.00,,,0.00,Wunderground v.1.15,2013-04-03 08:13:00,
2013-04-03 03:18:00,20.0,16.5,30.36,NE,42,0.0,0.0,86,0.00,,,0.00,Wunderground v.1.15,2013-04-03 08:18:00,
2013-04-03 03:23:00,20.1,16.6,30.36,NE,43,0.0,0.0,86,0.00,,,0.00,Wunderground v.1.15,2013-04-03 08:23:00,
2013-04-03 03:29:00,20.1,16.6,30.36,NE,43,0.0,0.0,86,0.00,,,0.00,Wunderground v.1.15,2013-04-03 08:29:00,
2013-04-03 03:34:00,19.9,16.4,30.36,NE,43,0.0,0.0,86,0.00,,,0.00,Wunderground v.1.15,2013-04-03 08:34:00,
2013-04-03 03:39:00,19.5,16.0,30.36,NE,43,0.0,0.0,86,0.00,,,0.00,Wunderground v.1.15,2013-04-03 08:39:00,
2013-04-03 03:44:00,19.5,16.3,30.36,NE,42,2.0,2.0,87,0.00,,,0.00,Wunderground v.1.15,2013-04-03 08:44:00,
2013-04-03 03:49:00,19.7,16.5,30.36,NE,43,1.0,3.0,87,0.00,,,0.00,Wunderground v.1.15,2013-04-03 08:49:00,
2013-04-03 03:54:00,19.9,16.7,30.36,NE,43,0.0,2.0,87,0.00,,,0.00,Wunderground v.1.15,2013-04-03 08:54:00,
2013-04-03 03:59:00,19.9,16.7,30.36,NE,43,2.0,3.0,87,0.00,,,0.00,Wunderground v.1.15,2013-04-03 08:59:00,
2013-04-03 04:04:00,20.2,17.0,30.36,NE,43,2.0,3.0,87,0.00,,,0.00,Wunderground v.1.15,2013-04-03 09:04:00,
2013-04-03 04:09:00,20.4,17.1,30.36,NE,42,0.0,3.0,87,0.00,,,0.00,Wunderground v.1.15,2013-04-03 09:09:00,
2013-04-03 04:14:00,20.4,17.1,30.36,NE,42,0.0,1.0,87,0.00,,,0.00,Wunderground v.1.15,2013-04-03 09:14:00,
2013-04-03 04:19:00,20.5,17.2,30.36,NE,43,0.0,1.0,87,0.00,,,0.00,Wunderground v.1.15,2013-04-03 09:19:00,
2013-04-03 04:24:00,20.5,17.2,30.35,NE,43,0.0,0.0,87,0.00,,,0.00,Wunderground v.1.15,2013-04-03 09:24:00,
2013-04-03 04:29:00,20.6,17.3,30.36,NE,43,3.0,3.0,87,0.00,,,0.00,Wunderground v.1.15,2013-04-03 09:29:00,
2013-04-03 04:34:00,21.0,17.7,30.36,NE,43,2.0,3.0,87,0.00,,,0.00,Wunderground v.1.15,2013-04-03 09:34:00,
2013-04-03 04:39:00,21.1,17.6,30.36,NE,43,2.0,3.0,86,0.00,,,0.00,Wunderground v.1.15,2013-04-03 09:39:00,
2013-04-03 04:44:00,21.3,17.8,30.35,NE,42,1.0,3.0,86,0.00,,,0.00,Wunderground v.1.15,2013-04-03 09:44:00,
2013-04-03 04:50:00,21.5,18.0,30.36,NE,43,2.0,3.0,86,0.00,,,0.00,Wunderground v.1.15,2013-04-03 09:50:00,
2013-04-03 04:55:00,21.5,18.0,30.36,NE,42,2.0,2.0,86,0.00,,,0.00,Wunderground v.1.15,2013-04-03 09:55:00,
2013-04-03 04:59:00,21.6,18.1,30.36,NE,43,0.0,3.0,86,0.00,,,0.00,Wunderground v.1.15,2013-04-03 09:59:00,
2013-04-03 05:05:00,21.4,17.6,30.36,NE,42,3.0,3.0,85,0.00,,,0.00,Wunderground v.1.15,2013-04-03 10:05:00,
2013-04-03 05:10:00,21.1,17.3,30.36,NE,42,2.0,3.0,85,0.00,,,0.00,Wunderground v.1.15,2013-04-03 10:10:00,
2013-04-03 05:16:00,20.9,17.1,30.36,NE,43,3.0,3.0,85,0.00,,,0.00,Wunderground v.1.15,2013-04-03 10:16:00,
2013-04-03 05:21:00,21.2,17.7,30.36,NE,43,1.0,3.0,86,0.00,,,0.00,Wunderground v.1.15,2013-04-03 10:21:00,
2013-04-03 05:27:00,21.0,17.2,30.36,NE,43,2.0,3.0,85,0.00,,,0.00,Wunderground v.1.15,2013-04-03 10:27:00,
2013-04-03 05:32:00,20.9,17.1,30.36,NE,43,1.0,2.0,85,0.00,,,0.00,Wunderground v.1.15,2013-04-03 10:32:00,
2013-04-03 05:37:00,20.6,16.8,30.36,NE,42,2.0,2.0,85,0.00,,,0.00,Wunderground v.1.15,2013-04-03 10:37:00,
2013-04-03 05:42:00,20.9,17.4,30.35,NE,43,2.0,2.0,86,0.00,,,0.00,Wunderground v.1.15,2013-04-03 10:42:00,
2013-04-03 05:47:00,21.2,17.7,30.35,NE,42,3.0,3.0,86,0.00,,,0.00,Wunderground v.1.15,2013-04-03 10:47:00,
2013-04-03 05:52:00,21.5,18.0,30.35,NE,42,2.0,2.0,86,0.00,,,0.00,Wunderground v.1.15,2013-04-03 10:52:00,
2013-04-03 05:57:00,21.1,17.3,30.35,NE,42,2.0,3.0,85,0.00,,,0.00,Wunderground v.1.15,2013-04-03 10:57:00,
2013-04-03 06:03:00,21.4,17.9,30.36,NE,42,3.0,4.0,86,0.00,,,0.00,Wunderground v.1.15,2013-04-03 11:03:00,
2013-04-03 06:08:00,22.4,18.8,30.35,NE,43,4.0,6.0,86,0.00,,,0.00,Wunderground v.1.15,2013-04-03 11:08:00,
2013-04-03 06:13:00,23.4,19.8,30.35,NE,43,1.0,6.0,86,0.00,,,0.00,Wunderground v.1.15,2013-04-03 11:13:00,
2013-04-03 06:18:00,23.9,20.0,30.36,NE,43,4.0,6.0,85,0.00,,,0.00,Wunderground v.1.15,2013-04-03 11:18:00,
2013-04-03 06:23:00,24.2,20.1,30.35,NE,43,3.0,5.0,84,0.00,,,0.00,Wunderground v.1.15,2013-04-03 11:23:00,
2013-04-03 06:28:00,24.2,20.1,30.36,NE,43,3.0,5.0,84,0.00,,,0.00,Wunderground v.1.15,2013-04-03 11:28:00,
2013-04-03 06:33:00,24.3,20.2,30.35,NE,43,6.0,8.0,84,0.00,,,0.00,Wunderground v.1.15,2013-04-03 11:33:00,
2013-04-03 06:38:00,24.5,20.1,30.36,NE,42,4.0,8.0,83,0.00,,,0.00,Wunderground v.1.15,2013-04-03 11:38:00,
2013-04-03 06:43:00,24.7,20.3,30.35,NE,42,4.0,7.0,83,0.00,,,0.00,Wunderground v.1.15,2013-04-03 11:43:00,
2013-04-03 06:48:00,25.0,20.3,30.35,NE,42,6.0,8.0,82,0.00,,,0.00,Wunderground v.1.15,2013-04-03 11:48:00,
2013-04-03 06:53:00,24.9,20.2,30.35,NE,43,3.0,5.0,82,0.00,,,0.00,Wunderground v.1.15,2013-04-03 11:53:00,
2013-04-03 06:58:00,24.2,19.5,30.35,NE,42,4.0,5.0,82,0.00,,,0.00,Wunderground v.1.15,2013-04-03 11:58:00,
2013-04-03 07:03:00,24.2,19.8,30.35,NE,43,3.0,5.0,83,0.00,,,0.00,Wunderground v.1.15,2013-04-03 12:03:00,
2013-04-03 07:08:00,24.2,19.8,30.35,NE,43,4.0,5.0,83,0.00,,,0.00,Wunderground v.1.15,2013-04-03 12:08:00,
2013-04-03 07:13:00,24.3,19.9,30.36,NE,42,2.0,4.0,83,0.00,,,0.00,Wunderground v.1.15,2013-04-03 12:13:00,
2013-04-03 07:18:00,24.5,20.1,30.36,NE,43,7.0,7.0,83,0.00,,,0.00,Wunderground v.1.15,2013-04-03 12:18:00,
2013-04-03 07:23:00,25.1,20.7,30.36,NE,48,4.0,6.0,83,0.00,,,0.00,Wunderground v.1.15,2013-04-03 12:23:00,
2013-04-03 07:28:00,25.5,20.8,30.36,ENE,69,5.0,10.0,82,0.00,,,0.00,Wunderground v.1.15,2013-04-03 12:28:00,
2013-04-03 07:33:00,26.2,21.2,30.36,ESE,118,7.0,12.0,81,0.00,,,0.00,Wunderground v.1.15,2013-04-03 12:33:00,
2013-04-03 07:38:00,26.7,21.4,30.35,ESE,118,2.0,12.0,80,0.00,,,0.00,Wunderground v.1.15,2013-04-03 12:38:00,
2013-04-03 07:43:00,27.0,21.7,30.35,ESE,119,4.0,7.0,80,0.00,,,0.00,Wunderground v.1.15,2013-04-03 12:43:00,
2013-04-03 07:48:00,27.3,21.9,30.35,ESE,118,8.0,8.0,80,0.00,,,0.00,Wunderground v.1.15,2013-04-03 12:48:00,
2013-04-03 07:53:00,27.6,22.2,30.34,ESE,122,4.0,9.0,80,0.00,,,0.00,Wunderground v.1.15,2013-04-03 12:53:00,
2013-04-03 07:58:00,28.0,22.6,30.35,SE,128,7.0,10.0,80,0.00,,,0.00,Wunderground v.1.15,2013-04-03 12:58:00,
2013-04-03 08:03:00,28.5,22.8,30.35,SE,140,4.0,9.0,79,0.00,,,0.00,Wunderground v.1.15,2013-04-03 13:03:00,
2013-04-03 08:08:00,28.8,23.1,30.35,SE,140,5.0,9.0,79,0.00,,,0.00,Wunderground v.1.15,2013-04-03 13:08:00,
2013-04-03 08:13:00,29.1,23.4,30.35,SSE,148,6.0,10.0,79,0.00,,,0.00,Wunderground v.1.15,2013-04-03 13:13:00,
2013-04-03 08:18:00,29.5,23.5,30.35,SSE,148,9.0,10.0,78,0.00,,,0.00,Wunderground v.1.15,2013-04-03 13:18:00,
2013-04-03 08:23:00,30.2,24.2,30.35,SSE,153,7.0,10.0,78,0.00,,,0.00,Wunderground v.1.15,2013-04-03 13:23:00,
2013-04-03 08:28:00,30.3,23.6,30.35,SSE,154,5.0,12.0,76,0.00,,,0.00,Wunderground v.1.15,2013-04-03 13:28:00,
2013-04-03 08:34:00,30.1,23.4,30.35,SSE,161,8.0,13.0,76,0.00,,,0.00,Wunderground v.1.15,2013-04-03 13:34:00,
2013-04-03 08:39:00,30.1,23.4,30.35,SSE,161,7.0,14.0,76,0.00,,,0.00,Wunderground v.1.15,2013-04-03 13:39:00,
2013-04-03 08:44:00,30.1,23.4,30.35,SSE,162,14.0,15.0,76,0.00,,,0.00,Wunderground v.1.15,2013-04-03 13:44:00,
2013-04-03 08:49:00,30.0,23.4,30.35,SSE,161,7.0,15.0,76,0.00,,,0.00,Wunderground v.1.15,2013-04-03 13:49:00,
2013-04-03 08:54:00,30.2,23.5,30.35,SSE,156,10.0,14.0,76,0.00,,,0.00,Wunderground v.1.15,2013-04-03 13:54:00,
2013-04-03 08:59:00,30.6,23.6,30.34,SSE,168,10.0,18.0,75,0.00,,,0.00,Wunderground v.1.15,2013-04-03 13:59:00,
2013-04-03 09:04:00,31.0,24.0,30.34,SSE,157,10.0,14.0,75,0.00,,,0.00,Wunderground v.1.15,2013-04-03 14:04:00,
2013-04-03 09:09:00,31.7,24.7,30.34,SSE,157,9.0,16.0,75,0.00,,,0.00,Wunderground v.1.15,2013-04-03 14:09:00,
2013-04-03 09:14:00,32.0,24.6,30.34,SSE,165,8.0,16.0,74,0.00,,,0.00,Wunderground v.1.15,2013-04-03 14:14:00,
2013-04-03 09:19:00,32.5,25.1,30.34,SSE,161,10.0,16.0,74,0.00,,,0.00,Wunderground v.1.15,2013-04-03 14:19:00,
2013-04-03 09:24:00,32.6,24.6,30.33,SSE,162,15.0,19.0,72,0.00,,,0.00,Wunderground v.1.15,2013-04-03 14:24:00,
2013-04-03 09:29:00,32.6,24.6,30.33,SSE,162,8.0,19.0,72,0.00,,,0.00,Wunderground v.1.15,2013-04-03 14:29:00,
2013-04-03 09:34:00,32.8,24.4,30.33,SSE,160,10.0,16.0,71,0.00,,,0.00,Wunderground v.1.15,2013-04-03 14:34:00,
2013-04-03 09:39:00,33.5,25.1,30.32,SSE,164,12.0,16.0,71,0.00,,,0.00,Wunderground v.1.15,2013-04-03 14:39:00,
2013-04-03 09:44:00,33.6,24.9,30.32,SSE,164,10.0,18.0,70,0.00,,,0.00,Wunderground v.1.15,2013-04-03 14:44:00,
2013-04-03 09:49:00,33.8,24.7,30.32,SSE,160,12.0,20.0,69,0.00,,,0.00,Wunderground v.1.15,2013-04-03 14:49:00,
2013-04-03 09:54:00,34.1,25.0,30.32,SSE,163,9.0,16.0,69,0.00,,,0.00,Wunderground v.1.15,2013-04-03 14:54:00,
2013-04-03 09:59:00,34.3,24.8,30.31,SSE,166,14.0,17.0,68,0.00,,,0.00,Wunderground v.1.15,2013-04-03 14:59:00,
2013-04-03 10:04:00,34.7,25.2,30.31,SSE,153,8.0,17.0,68,0.00,,,0.00,Wunderground v.1.15,2013-04-03 15:04:00,
2013-04-03 10:09:00,35.1,25.2,30.31,SSE,148,20.0,20.0,67,0.00,,,0.00,Wunderground v.1.15,2013-04-03 15:09:00,
2013-04-03 10:14:00,35.3,25.1,30.31,SSE,161,13.0,17.0,66,0.00,,,0.00,Wunderground v.1.15,2013-04-03 15:14:00,
2013-04-03 10:19:00,35.2,24.6,30.31,South,175,13.0,18.0,65,0.00,,,0.00,Wunderground v.1.15,2013-04-03 15:19:00,
2013-04-03 10:24:00,36.1,25.8,30.31,South,171,13.0,19.0,66,0.00,,,0.00,Wunderground v.1.15,2013-04-03 15:24:00,
2013-04-03 10:29:00,36.1,25.5,30.31,SSE,156,12.0,19.0,65,0.00,,,0.00,Wunderground v.1.15,2013-04-03 15:29:00,
2013-04-03 10:34:00,36.8,26.1,30.31,SSE,157,12.0,17.0,65,0.00,,,0.00,Wunderground v.1.15,2013-04-03 15:34:00,
2013-04-03 10:39:00,37.5,26.8,30.31,SSE,161,10.0,19.0,65,0.00,,,0.00,Wunderground v.1.15,2013-04-03 15:39:00,
2013-04-03 10:44:00,36.9,25.9,30.30,SSE,166,13.0,20.0,64,0.00,,,0.00,Wunderground v.1.15,2013-04-03 15:44:00,
2013-04-03 10:49:00,37.3,26.2,30.30,SSE,163,11.0,20.0,64,0.00,,,0.00,Wunderground v.1.15,2013-04-03 15:49:00,
2013-04-03 10:54:00,37.5,26.4,30.30,SSE,159,11.0,18.0,64,0.00,,,0.00,Wunderground v.1.15,2013-04-03 15:54:00,
2013-04-03 11:00:00,37.8,26.3,30.30,SSE,163,11.0,18.0,63,0.00,,,0.00,Wunderground v.1.15,2013-04-03 16:00:00,
2013-04-03 11:04:00,38.0,26.1,30.30,SSE,161,10.0,18.0,62,0.00,,,0.00,Wunderground v.1.15,2013-04-03 16:04:00,
2013-04-03 11:09:00,38.6,26.7,30.30,SSE,157,13.0,18.0,62,0.00,,,0.00,Wunderground v.1.15,2013-04-03 16:09:00,
2013-04-03 11:15:00,38.6,26.7,30.30,SSE,157,16.0,20.0,62,0.00,,,0.00,Wunderground v.1.15,2013-04-03 16:15:00,
2013-04-03 11:21:00,38.6,26.3,30.30,South,177,22.0,22.0,61,0.00,,,0.00,Wunderground v.1.15,2013-04-03 16:21:00,
2013-04-03 11:28:00,39.2,26.9,30.30,South,176,17.0,24.0,61,0.00,,,0.00,Wunderground v.1.15,2013-04-03 16:28:00,
2013-04-03 11:33:00,39.0,26.7,30.30,SSE,161,16.0,19.0,61,0.00,,,0.00,Wunderground v.1.15,2013-04-03 16:33:00,
2013-04-03 11:38:00,39.2,26.9,30.30,SSE,156,14.0,22.0,61,0.00,,,0.00,Wunderground v.1.15,2013-04-03 16:38:00,
2013-04-03 11:43:00,39.4,27.1,30.29,SSE,167,13.0,18.0,61,0.00,,,0.00,Wunderground v.1.15,2013-04-03 16:43:00,
2013-04-03 11:48:00,39.8,27.4,30.29,SSE,167,17.0,25.0,61,0.00,,,0.00,Wunderground v.1.15,2013-04-03 16:48:00,
2013-04-03 11:53:00,40.2,27.4,30.29,South,175,15.0,21.0,60,0.00,,,0.00,Wunderground v.1.15,2013-04-03 16:53:00,
2013-04-03 11:58:00,40.3,28.3,30.29,South,171,11.0,21.0,62,0.00,,,0.00,Wunderground v.1.15,2013-04-03 16:58:00,
2013-04-03 12:03:00,40.9,28.5,30.29,South,183,18.0,21.0,61,0.00,,,0.00,Wunderground v.1.15,2013-04-03 17:03:00,
2013-04-03 12:08:00,40.7,28.3,30.29,South,170,17.0,21.0,61,0.00,,,0.00,Wunderground v.1.15,2013-04-03 17:08:00,
2013-04-03 12:14:00,40.5,28.5,30.28,South,184,15.0,18.0,62,0.00,,,0.00,Wunderground v.1.15,2013-04-03 17:14:00,
2013-04-03 12:19:00,40.2,27.8,30.28,SSW,197,11.0,23.0,61,0.00,,,0.00,Wunderground v.1.15,2013-04-03 17:19:00,
2013-04-03 12:24:00,40.9,28.1,30.28,South,183,25.0,25.0,60,0.00,,,0.00,Wunderground v.1.15,2013-04-03 17:24:00,
2013-04-03 12:29:00,40.8,28.8,30.28,South,181,21.0,25.0,62,0.00,,,0.00,Wunderground v.1.15,2013-04-03 17:29:00,
2013-04-03 12:34:00,41.4,28.9,30.28,South,171,16.0,22.0,61,0.00,,,0.00,Wunderground v.1.15,2013-04-03 17:34:00,
2013-04-03 12:40:00,41.7,29.6,30.27,South,186,11.0,24.0,62,0.00,,,0.00,Wunderground v.1.15,2013-04-03 17:40:00,
2013-04-03 12:45:00,42.0,29.1,30.27,SSW,192,12.0,23.0,60,0.00,,,0.00,Wunderground v.1.15,2013-04-03 17:45:00,
2013-04-03 12:50:00,42.5,30.4,30.27,South,182,19.0,23.0,62,0.00,,,0.00,Wunderground v.1.15,2013-04-03 17:50:00,
2013-04-03 12:55:00,42.6,30.1,30.26,South,191,19.0,21.0,61,0.00,,,0.00,Wunderground v.1.15,2013-04-03 17:55:00,
2013-04-03 13:00:00,42.7,30.6,30.26,South,179,14.0,18.0,62,0.00,,,0.00,Wunderground v.1.15,2013-04-03 18:00:00,
2013-04-03 13:05:00,43.3,30.7,30.26,SSE,166,17.0,24.0,61,0.00,,,0.00,Wunderground v.1.15,2013-04-03 18:05:00,
2013-04-03 13:10:00,43.7,31.1,30.26,South,190,13.0,16.0,61,0.00,,,0.00,Wunderground v.1.15,2013-04-03 18:10:00,
2013-04-03 13:17:00,44.3,31.3,30.26,South,190,21.0,28.0,60,0.00,,,0.00,Wunderground v.1.15,2013-04-03 18:17:00,
2013-04-03 13:22:00,44.1,30.3,30.25,SSE,164,17.0,21.0,58,0.00,,,0.00,Wunderground v.1.15,2013-04-03 18:22:00,
2013-04-03 13:27:00,44.3,30.4,30.25,South,180,14.0,23.0,58,0.00,,,0.00,Wunderground v.1.15,2013-04-03 18:27:00,
2013-04-03 13:32:00,44.8,31.3,30.25,SSW,200,13.0,22.0,59,0.00,,,0.00,Wunderground v.1.15,2013-04-03 18:32:00,
2013-04-03 13:37:00,45.0,30.7,30.25,SSW,205,17.0,25.0,57,0.00,,,0.00,Wunderground v.1.15,2013-04-03 18:37:00,
2013-04-03 13:42:00,45.0,31.1,30.25,South,183,15.0,22.0,58,0.00,,,0.00,Wunderground v.1.15,2013-04-03 18:42:00,
2013-04-03 13:47:00,45.4,31.0,30.25,SSW,192,20.0,24.0,57,0.00,,,0.00,Wunderground v.1.15,2013-04-03 18:47:00,
2013-04-03 13:52:00,45.5,30.7,30.25,South,180,19.0,22.0,56,0.00,,,0.00,Wunderground v.1.15,2013-04-03 18:52:00,
2013-04-03 13:57:00,46.0,31.2,30.24,South,182,22.0,25.0,56,0.00,,,0.00,Wunderground v.1.15,2013-04-03 18:57:00,
2013-04-03 14:02:00,46.7,31.8,30.24,South,175,13.0,22.0,56,0.00,,,0.00,Wunderground v.1.15,2013-04-03 19:02:00,
2013-04-03 14:07:00,46.8,32.4,30.24,South,173,14.0,23.0,57,0.00,,,0.00,Wunderground v.1.15,2013-04-03 19:07:00,
2013-04-03 14:13:00,46.8,31.9,30.24,South,186,18.0,19.0,56,0.00,,,0.00,Wunderground v.1.15,2013-04-03 19:13:00,
2013-04-03 14:18:00,47.2,31.8,30.24,South,182,10.0,21.0,55,0.00,,,0.00,Wunderground v.1.15,2013-04-03 19:18:00,
2013-04-03 14:23:00,46.8,31.9,30.23,South,182,14.0,22.0,56,0.00,,,0.00,Wunderground v.1.15,2013-04-03 19:23:00,
2013-04-03 14:28:00,47.5,31.2,30.23,South,187,17.0,22.0,53,0.00,,,0.00,Wunderground v.1.15,2013-04-03 19:28:00,
2013-04-03 14:33:00,47.8,31.9,30.23,South,171,22.0,26.0,54,0.00,,,0.00,Wunderground v.1.15,2013-04-03 19:33:00,
2013-04-03 14:38:00,47.9,32.5,30.23,South,181,19.0,26.0,55,0.00,,,0.00,Wunderground v.1.15,2013-04-03 19:38:00,
2013-04-03 14:43:00,48.1,32.2,30.22,South,191,27.0,27.0,54,0.00,,,0.00,Wunderground v.1.15,2013-04-03 19:43:00,
2013-04-03 14:48:00,48.3,31.5,30.22,SSW,209,15.0,27.0,52,0.00,,,0.00,Wunderground v.1.15,2013-04-03 19:48:00,
2013-04-03 14:53:00,48.1,31.8,30.22,South,179,14.0,22.0,53,0.00,,,0.00,Wunderground v.1.15,2013-04-03 19:53:00,
2013-04-03 14:58:00,48.8,32.9,30.21,South,182,17.0,24.0,54,0.00,,,0.00,Wunderground v.1.15,2013-04-03 19:58:00,
2013-04-03 15:03:00,49.1,32.2,30.21,South,185,25.0,25.0,52,0.00,,,0.00,Wunderground v.1.15,2013-04-03 20:03:00,
2013-04-03 15:08:00,49.2,32.8,30.21,South,187,21.0,25.0,53,0.00,,,0.00,Wunderground v.1.15,2013-04-03 20:08:00,
2013-04-03 15:13:00,49.6,32.7,30.21,South,179,20.0,20.0,52,0.00,,,0.00,Wunderground v.1.15,2013-04-03 20:13:00,
2013-04-03 15:18:00,49.5,32.1,30.21,SSW,195,13.0,23.0,51,0.00,,,0.00,Wunderground v.1.15,2013-04-03 20:18:00,
2013-04-03 15:23:00,49.7,32.8,30.21,SSW,202,16.0,26.0,52,0.00,,,0.00,Wunderground v.1.15,2013-04-03 20:23:00,
2013-04-03 15:29:00,49.7,32.8,30.20,South,175,17.0,26.0,52,0.00,,,0.00,Wunderground v.1.15,2013-04-03 20:29:00,
2013-04-03 15:34:00,49.9,33.0,30.21,South,191,19.0,21.0,52,0.00,,,0.00,Wunderground v.1.15,2013-04-03 20:34:00,
2013-04-03 15:39:00,50.2,32.3,30.20,SSW,199,17.0,21.0,50,0.00,,,0.00,Wunderground v.1.15,2013-04-03 20:39:00,
2013-04-03 15:44:00,50.8,33.3,30.20,South,190,17.0,19.0,51,0.00,,,0.00,Wunderground v.1.15,2013-04-03 20:44:00,
2013-04-03 15:49:00,50.8,33.3,30.20,SSW,195,15.0,20.0,51,0.00,,,0.00,Wunderground v.1.15,2013-04-03 20:49:00,
2013-04-03 15:54:00,51.1,34.1,30.20,SSW,206,18.0,20.0,52,0.00,,,0.00,Wunderground v.1.15,2013-04-03 20:54:00,
2013-04-03 15:59:00,51.2,32.7,30.19,SSW,210,20.0,24.0,49,0.00,,,0.00,Wunderground v.1.15,2013-04-03 20:59:00,
2013-04-03 16:05:00,51.2,32.2,30.19,SSW,192,17.0,21.0,48,0.00,,,0.00,Wunderground v.1.15,2013-04-03 21:05:00,
2013-04-03 16:10:00,51.2,32.2,30.19,South,191,20.0,24.0,48,0.00,,,0.00,Wunderground v.1.15,2013-04-03 21:10:00,
2013-04-03 16:15:00,51.0,33.0,30.19,South,182,22.0,25.0,50,0.00,,,0.00,Wunderground v.1.15,2013-04-03 21:15:00,
2013-04-03 16:20:00,51.2,32.7,30.18,South,189,18.0,18.0,49,0.00,,,0.00,Wunderground v.1.15,2013-04-03 21:20:00,
2013-04-03 16:25:00,51.4,33.4,30.18,SSW,202,15.0,24.0,50,0.00,,,0.00,Wunderground v.1.15,2013-04-03 21:25:00,
2013-04-03 16:30:00,50.8,32.3,30.18,SSW,198,11.0,18.0,49,0.00,,,0.00,Wunderground v.1.15,2013-04-03 21:30:00,
2013-04-03 16:35:00,51.4,33.4,30.18,South,188,17.0,24.0,50,0.00,,,0.00,Wunderground v.1.15,2013-04-03 21:35:00,
2013-04-03 16:40:00,51.0,32.5,30.18,South,186,22.0,22.0,49,0.00,,,0.00,Wunderground v.1.15,2013-04-03 21:40:00,
2013-04-03 16:45:00,51.2,32.7,30.18,SSW,195,21.0,24.0,49,0.00,,,0.00,Wunderground v.1.15,2013-04-03 21:45:00,
2013-04-03 16:50:00,51.2,32.7,30.17,SSW,209,12.0,17.0,49,0.00,,,0.00,Wunderground v.1.15,2013-04-03 21:50:00,
2013-04-03 16:55:00,51.5,33.0,30.17,South,190,15.0,21.0,49,0.00,,,0.00,Wunderground v.1.15,2013-04-03 21:55:00,
2013-04-03 17:01:00,51.2,32.7,30.17,SSW,194,15.0,16.0,49,0.00,,,0.00,Wunderground v.1.15,2013-04-03 22:01:00,
2013-04-03 17:07:00,51.4,33.4,30.17,SSW,192,14.0,20.0,50,0.00,,,0.00,Wunderground v.1.15,2013-04-03 22:07:00,
2013-04-03 17:12:00,51.4,32.9,30.16,South,190,12.0,15.0,49,0.00,,,0.00,Wunderground v.1.15,2013-04-03 22:12:00,
2013-04-03 17:17:00,51.2,32.2,30.16,South,189,15.0,24.0,48,0.00,,,0.00,Wunderground v.1.15,2013-04-03 22:17:00,
2013-04-03 17:22:00,51.2,32.2,30.16,SSW,194,15.0,19.0,48,0.00,,,0.00,Wunderground v.1.15,2013-04-03 22:22:00,
2013-04-03 17:27:00,51.3,32.8,30.16,SSW,206,17.0,20.0,49,0.00,,,0.00,Wunderground v.1.15,2013-04-03 22:27:00,
2013-04-03 17:32:00,51.2,32.7,30.16,SSW,192,15.0,16.0,49,0.00,,,0.00,Wunderground v.1.15,2013-04-03 22:32:00,
2013-04-03 17:37:00,51.1,32.1,30.16,SSW,200,17.0,24.0,48,0.00,,,0.00,Wunderground v.1.15,2013-04-03 22:37:00,
2013-04-03 17:42:00,51.1,32.6,30.16,SSW,211,17.0,18.0,49,0.00,,,0.00,Wunderground v.1.15,2013-04-03 22:42:00,
2013-04-03 17:47:00,51.2,32.7,30.16,SSW,202,13.0,22.0,49,0.00,,,0.00,Wunderground v.1.15,2013-04-03 22:47:00,
2013-04-03 17:52:00,51.2,32.7,30.15,SSW,199,12.0,15.0,49,0.00,,,0.00,Wunderground v.1.15,2013-04-03 22:52:00,
2013-04-03 17:57:00,51.1,32.1,30.15,SSW,198,13.0,22.0,48,0.00,,,0.00,Wunderground v.1.15,2013-04-03 22:57:00,
2013-04-03 18:02:00,51.3,32.8,30.15,SSW,208,18.0,18.0,49,0.00,,,0.00,Wunderground v.1.15,2013-04-03 23:02:00,
2013-04-03 18:07:00,51.2,32.7,30.15,South,190,13.0,20.0,49,0.00,,,0.00,Wunderground v.1.15,2013-04-03 23:07:00,
2013-04-03 18:12:00,50.9,32.4,30.15,SSW,194,13.0,21.0,49,0.00,,,0.00,Wunderground v.1.15,2013-04-03 23:12:00,
2013-04-03 18:17:00,50.8,32.3,30.15,SSW,200,9.0,21.0,49,0.00,,,0.00,Wunderground v.1.15,2013-04-03 23:17:00,
2013-04-03 18:22:00,50.7,32.7,30.15,SW,215,15.0,17.0,50,0.00,,,0.00,Wunderground v.1.15,2013-04-03 23:22:00,
2013-04-03 18:27:00,50.7,33.2,30.15,SSW,200,13.0,19.0,51,0.00,,,0.00,Wunderground v.1.15,2013-04-03 23:27:00,
2013-04-03 18:32:00,50.5,32.5,30.15,SW,218,14.0,16.0,50,0.00,,,0.00,Wunderground v.1.15,2013-04-03 23:32:00,
2013-04-03 18:37:00,50.3,32.4,30.15,SSW,192,8.0,21.0,50,0.00,,,0.00,Wunderground v.1.15,2013-04-03 23:37:00,
2013-04-03 18:42:00,50.0,32.6,30.15,South,176,8.0,18.0,51,0.00,,,0.00,Wunderground v.1.15,2013-04-03 23:42:00,
2013-04-03 18:47:00,49.8,32.4,30.15,South,184,14.0,21.0,51,0.00,,,0.00,Wunderground v.1.15,2013-04-03 23:47:00,
2013-04-03 18:52:00,49.5,32.1,30.15,South,190,10.0,12.0,51,0.00,,,0.00,Wunderground v.1.15,2013-04-03 23:52:00,
2013-04-03 18:57:00,49.2,32.8,30.15,South,186,14.0,14.0,53,0.00,,,0.00,Wunderground v.1.15,2013-04-03 23:57:00,
2013-04-03 19:03:00,49.0,32.6,30.15,South,187,14.0,15.0,53,0.00,,,0.00,Wunderground v.1.15,2013-04-04 00:03:00,
2013-04-03 19:08:00,48.6,32.7,30.15,South,180,10.0,16.0,54,0.00,,,0.00,Wunderground v.1.15,2013-04-04 00:08:00,
2013-04-03 19:13:00,48.3,32.4,30.14,South,183,8.0,15.0,54,0.00,,,0.00,Wunderground v.1.15,2013-04-04 00:13:00,
2013-04-03 19:18:00,47.9,32.9,30.14,South,178,7.0,15.0,56,0.00,,,0.00,Wunderground v.1.15,2013-04-04 00:18:00,
2013-04-03 19:23:00,47.4,32.9,30.14,South,179,7.0,14.0,57,0.00,,,0.00,Wunderground v.1.15,2013-04-04 00:23:00,
2013-04-03 19:28:00,47.0,33.0,30.14,South,180,9.0,14.0,58,0.00,,,0.00,Wunderground v.1.15,2013-04-04 00:28:00,
2013-04-03 19:33:00,46.6,32.6,30.14,South,174,6.0,13.0,58,0.00,,,0.00,Wunderground v.1.15,2013-04-04 00:33:00,
2013-04-03 19:38:00,46.1,32.6,30.14,South,175,10.0,13.0,59,0.00,,,0.00,Wunderground v.1.15,2013-04-04 00:38:00,
2013-04-03 19:44:00,45.8,32.3,30.14,South,176,11.0,15.0,59,0.00,,,0.00,Wunderground v.1.15,2013-04-04 00:44:00,
2013-04-03 19:49:00,45.5,32.4,30.14,South,173,8.0,15.0,60,0.00,,,0.00,Wunderground v.1.15,2013-04-04 00:49:00,
2013-04-03 19:54:00,45.1,32.4,30.14,South,177,7.0,16.0,61,0.00,,,0.00,Wunderground v.1.15,2013-04-04 00:54:00,
2013-04-03 20:00:00,44.7,32.5,30.14,South,172,8.0,10.0,62,0.00,,,0.00,Wunderground v.1.15,2013-04-04 01:00:00,
2013-04-03 20:05:00,44.3,32.1,30.14,South,178,12.0,15.0,62,0.00,,,0.00,Wunderground v.1.15,2013-04-04 01:05:00,
2013-04-03 20:10:00,44.0,31.8,30.14,South,182,11.0,12.0,62,0.00,,,0.00,Wunderground v.1.15,2013-04-04 01:10:00,
2013-04-03 20:15:00,43.6,31.8,30.14,South,175,11.0,13.0,63,0.00,,,0.00,Wunderground v.1.15,2013-04-04 01:15:00,
2013-04-03 20:20:00,43.3,31.5,30.14,South,178,14.0,14.0,63,0.00,,,0.00,Wunderground v.1.15,2013-04-04 01:20:00,
2013-04-03 20:25:00,43.4,31.2,30.14,South,173,11.0,16.0,62,0.00,,,0.00,Wunderground v.1.15,2013-04-04 01:25:00,
2013-04-03 20:30:00,43.4,31.2,30.14,South,176,10.0,13.0,62,0.00,,,0.00,Wunderground v.1.15,2013-04-04 01:30:00,
2013-04-03 20:35:00,43.3,31.1,30.14,South,178,11.0,17.0,62,0.00,,,0.00,Wunderground v.1.15,2013-04-04 01:35:00,
2013-04-03 20:40:00,43.3,31.1,30.14,South,169,12.0,16.0,62,0.00,,,0.00,Wunderground v.1.15,2013-04-04 01:40:00,
2013-04-03 20:47:00,42.4,31.1,30.14,SSE,167,11.0,17.0,64,0.00,,,0.00,Wunderground v.1.15,2013-04-04 01:47:00,
2013-04-03 20:52:00,42.2,30.9,30.14,South,186,17.0,17.0,64,0.00,,,0.00,Wunderground v.1.15,2013-04-04 01:52:00,
2013-04-03 20:57:00,42.0,30.7,30.13,SSE,166,9.0,17.0,64,0.00,,,0.00,Wunderground v.1.15,2013-04-04 01:57:00,
2013-04-03 21:02:00,41.8,30.5,30.13,South,169,10.0,12.0,64,0.00,,,0.00,Wunderground v.1.15,2013-04-04 02:02:00,
2013-04-03 21:07:00,41.5,30.6,30.14,South,180,10.0,15.0,65,0.00,,,0.00,Wunderground v.1.15,2013-04-04 02:07:00,
2013-04-03 21:12:00,41.3,30.4,30.14,South,173,9.0,16.0,65,0.00,,,0.00,Wunderground v.1.15,2013-04-04 02:12:00,
2013-04-03 21:17:00,41.1,30.2,30.14,South,180,12.0,17.0,65,0.00,,,0.00,Wunderground v.1.15,2013-04-04 02:17:00,
2013-04-03 21:22:00,41.1,30.2,30.14,South,176,9.0,14.0,65,0.00,,,0.00,Wunderground v.1.15,2013-04-04 02:22:00,
2013-04-03 21:27:00,40.8,30.3,30.14,South,170,9.0,14.0,66,0.00,,,0.00,Wunderground v.1.15,2013-04-04 02:27:00,
2013-04-03 21:32:00,40.5,30.0,30.14,South,172,10.0,11.0,66,0.00,,,0.00,Wunderground v.1.15,2013-04-04 02:32:00,
2013-04-03 21:37:00,40.1,30.0,30.14,South,178,10.0,13.0,67,0.00,,,0.00,Wunderground v.1.15,2013-04-04 02:37:00,
2013-04-03 21:42:00,40.2,30.1,30.14,SSE,167,10.0,11.0,67,0.00,,,0.00,Wunderground v.1.15,2013-04-04 02:42:00,
2013-04-03 21:47:00,40.2,30.1,30.14,SSE,167,8.0,15.0,67,0.00,,,0.00,Wunderground v.1.15,2013-04-04 02:47:00,
2013-04-03 21:52:00,40.2,30.1,30.14,South,171,8.0,14.0,67,0.00,,,0.00,Wunderground v.1.15,2013-04-04 02:52:00,
2013-04-03 21:57:00,39.9,30.2,30.14,South,175,5.0,14.0,68,0.00,,,0.00,Wunderground v.1.15,2013-04-04 02:57:00,
2013-04-03 22:02:00,39.9,30.2,30.15,South,182,14.0,15.0,68,0.00,,,0.00,Wunderground v.1.15,2013-04-04 03:02:00,
2013-04-03 22:08:00,39.7,30.0,30.14,South,182,14.0,15.0,68,0.00,,,0.00,Wunderground v.1.15,2013-04-04 03:08:00,
2013-04-03 22:13:00,39.7,30.0,30.14,South,177,12.0,15.0,68,0.00,,,0.00,Wunderground v.1.15,2013-04-04 03:13:00,
2013-04-03 22:18:00,39.5,29.8,30.14,South,172,14.0,15.0,68,0.00,,,0.00,Wunderground v.1.15,2013-04-04 03:18:00,
2013-04-03 22:23:00,39.8,29.7,30.14,South,178,13.0,17.0,67,0.00,,,0.00,Wunderground v.1.15,2013-04-04 03:23:00,
2013-04-03 22:28:00,40.2,29.7,30.14,South,185,12.0,17.0,66,0.00,,,0.00,Wunderground v.1.15,2013-04-04 03:28:00,
2013-04-03 22:33:00,40.2,29.7,30.13,South,178,14.0,17.0,66,0.00,,,0.00,Wunderground v.1.15,2013-04-04 03:33:00,
2013-04-03 22:38:00,40.5,29.7,30.13,South,190,10.0,18.0,65,0.00,,,0.00,Wunderground v.1.15,2013-04-04 03:38:00,
2013-04-03 22:43:00,40.6,29.4,30.13,South,188,18.0,20.0,64,0.00,,,0.00,Wunderground v.1.15,2013-04-04 03:43:00,
2013-04-03 22:48:00,40.6,29.4,30.12,South,188,11.0,21.0,64,0.00,,,0.00,Wunderground v.1.15,2013-04-04 03:48:00,
2013-04-03 22:53:00,40.4,29.2,30.12,South,186,12.0,20.0,64,0.00,,,0.00,Wunderground v.1.15,2013-04-04 03:53:00,
2013-04-03 22:58:00,40.2,29.0,30.12,South,187,15.0,20.0,64,0.00,,,0.00,Wunderground v.1.15,2013-04-04 03:58:00,
2013-04-03 23:00:00,40.1,29.3,30.12,South,178,18.0,20.0,65,0.00,,,0.00,Wunderground v.1.15,2013-04-04 04:00:00,
2013-04-03 23:01:00,40.0,29.2,30.12,South,184,12.0,15.0,65,0.00,,,0.00,Wunderground v.1.15,2013-04-04 04:01:00,
2013-04-03 23:02:00,40.0,29.2,30.12,South,183,14.0,15.0,65,0.00,,,0.00,Wunderground v.1.15,2013-04-04 04:02:00,
2013-04-03 23:07:00,39.8,29.0,30.12,SSW,195,14.0,19.0,65,0.00,,,0.00,Wunderground v.1.15,2013-04-04 04:07:00,
2013-04-03 23:12:00,39.2,28.8,30.12,SSW,194,8.0,13.0,66,0.00,,,0.00,Wunderground v.1.15,2013-04-04 04:12:00,
2013-04-03 23:17:00,38.9,28.9,30.12,South,186,13.0,16.0,67,0.00,,,0.00,Wunderground v.1.15,2013-04-04 04:17:00,
2013-04-03 23:22:00,38.7,29.0,30.12,South,186,11.0,13.0,68,0.00,,,0.00,Wunderground v.1.15,2013-04-04 04:22:00,
2013-04-03 23:27:00,38.6,28.9,30.12,SSW,200,14.0,18.0,68,0.00,,,0.00,Wunderground v.1.15,2013-04-04 04:27:00,
2013-04-03 23:32:00,38.7,29.0,30.11,South,186,12.0,12.0,68,0.00,,,0.00,Wunderground v.1.15,2013-04-04 04:32:00,
2013-04-03 23:37:00,38.4,28.8,30.11,SSW,198,15.0,17.0,68,0.00,,,0.00,Wunderground v.1.15,2013-04-04 04:37:00,
2013-04-03 23:42:00,38.2,28.9,30.11,South,185,9.0,13.0,69,0.00,,,0.00,Wunderground v.1.15,2013-04-04 04:42:00,
2013-04-03 23:47:00,37.9,28.6,30.11,SSW,192,9.0,16.0,69,0.00,,,0.00,Wunderground v.1.15,2013-04-04 04:47:00,
2013-04-03 23:52:00,37.8,28.5,30.10,South,189,13.0,13.0,69,0.00,,,0.00,Wunderground v.1.15,2013-04-04 04:52:00,
2013-04-03 23:57:00,37.8,28.5,30.10,South,190,11.0,16.0,69,0.00,,,0.00,Wunderground v.1.15,2013-04-04 04:57:00,